createdAt,value
2018-04-13T00:02:01.914Z,23.85
2018-04-13T00:04:29.053Z,23.35
2018-04-13T00:06:55.894Z,24.30
2018-04-13T00:09:22.782Z,23.25
2018-04-13T00:11:49.650Z,23.65
2018-04-13T00:14:16.503Z,23.30
2018-04-13T00:16:43.375Z,23.87
2018-04-13T00:19:10.526Z,23.27
2018-04-13T00:21:37.675Z,23.17
2018-04-13T00:24:04.539Z,24.00
2018-04-13T00:26:31.671Z,23.35
2018-04-13T00:28:58.506Z,23.77
2018-04-13T00:31:25.354Z,24.10
2018-04-13T00:33:52.197Z,23.83
2018-04-13T00:36:19.276Z,24.33
2018-04-13T00:38:46.150Z,24.05
2018-04-13T00:41:12.970Z,25.08
2018-04-13T00:43:39.831Z,24.40
2018-04-13T00:46:07.500Z,25.27
2018-04-13T00:48:34.346Z,25.05
2018-04-13T00:51:01.430Z,24.63
2018-04-13T00:53:28.581Z,23.90
2018-04-13T00:55:55.741Z,25.88
2018-04-13T00:58:22.587Z,24.58
2018-04-13T01:00:49.430Z,25.10
2018-04-13T01:03:16.877Z,24.48
2018-04-13T01:05:43.711Z,25.23
2018-04-13T01:08:10.868Z,25.88
2018-04-13T01:10:37.731Z,25.50
2018-04-13T01:13:04.806Z,24.70
2018-04-13T01:15:31.666Z,25.40
2018-04-13T01:17:58.553Z,26.10
2018-04-13T01:20:25.378Z,25.02
2018-04-13T01:23:40.056Z,25.70
2018-04-13T01:26:07.079Z,25.00
2018-04-13T01:28:33.951Z,25.40
2018-04-13T01:31:01.113Z,24.95
2018-04-13T01:33:27.945Z,26.23
2018-04-13T01:35:54.800Z,26.02
2018-04-13T01:38:21.671Z,26.60
2018-04-13T01:40:48.527Z,26.23
2018-04-13T01:43:15.625Z,25.52
2018-04-13T01:45:42.526Z,26.30
2018-04-13T01:48:09.589Z,26.37
2018-04-13T01:50:36.435Z,27.10
2018-04-13T01:53:03.300Z,26.25
2018-04-13T01:55:30.168Z,26.00
2018-04-13T01:57:57.119Z,26.08
2018-04-13T02:00:23.957Z,25.60
2018-04-13T02:02:50.903Z,25.92
2018-04-13T02:05:18.156Z,26.27
2018-04-13T02:07:45.763Z,26.83
2018-04-13T02:10:13.699Z,27.23
2018-04-13T02:12:40.904Z,26.40
2018-04-13T02:15:07.994Z,27.25
2018-04-13T02:17:35.522Z,26.45
2018-04-13T02:20:03.204Z,26.98
2018-04-13T02:22:30.182Z,26.62
2018-04-13T02:24:57.542Z,26.20
2018-04-13T02:27:24.834Z,27.62
2018-04-13T02:29:51.897Z,26.40
2018-04-13T02:32:19.016Z,27.80
2018-04-13T02:34:46.027Z,25.80
2018-04-13T02:37:13.565Z,26.75
2018-04-13T02:39:40.615Z,26.55
2018-04-13T02:42:07.627Z,27.70
2018-04-13T02:44:34.769Z,27.30
2018-04-13T02:47:01.976Z,27.75
2018-04-13T02:49:29.505Z,28.17
2018-04-13T02:51:56.937Z,27.37
2018-04-13T02:54:24.282Z,28.65
2018-04-13T02:56:51.356Z,29.02
2018-04-13T02:59:18.381Z,28.42
2018-04-13T03:01:45.894Z,27.98
2018-04-13T03:04:13.112Z,28.17
2018-04-13T03:06:40.721Z,28.67
2018-04-13T03:09:07.898Z,29.65
2018-04-13T03:11:35.652Z,28.40
2018-04-13T03:14:03.638Z,29.87
2018-04-13T03:16:31.161Z,29.08
2018-04-13T03:18:58.958Z,28.80
2018-04-13T03:21:27.109Z,29.85
2018-04-13T03:23:54.951Z,29.73
2018-04-13T03:26:22.445Z,29.98
2018-04-13T03:28:49.670Z,29.70
2018-04-13T03:31:16.944Z,30.45
2018-04-13T03:33:44.492Z,30.53
2018-04-13T03:36:12.072Z,29.75
2018-04-13T03:38:39.015Z,30.20
2018-04-13T03:41:06.241Z,30.17
2018-04-13T03:43:33.326Z,30.67
2018-04-13T03:46:00.509Z,30.10
2018-04-13T03:48:27.890Z,30.90
2018-04-13T03:50:55.231Z,30.80
2018-04-13T03:53:22.611Z,31.42
2018-04-13T03:55:50.003Z,31.77
2018-04-13T03:58:17.564Z,31.15
2018-04-13T04:01:00.086Z,30.33
2018-04-13T04:03:27.723Z,31.50
2018-04-13T04:05:54.888Z,31.20
2018-04-13T04:08:22.492Z,32.40
2018-04-13T04:10:49.712Z,31.17
2018-04-13T04:13:17.780Z,32.25
2018-04-13T04:15:44.767Z,31.80
2018-04-13T04:18:12.363Z,31.67
2018-04-13T04:20:45.397Z,31.30
2018-04-13T04:23:18.425Z,32.85
2018-04-13T04:26:01.237Z,31.48
2018-04-13T04:28:28.127Z,32.73
2018-04-13T04:30:54.962Z,31.80
2018-04-13T04:33:22.354Z,31.67
2018-04-13T04:35:49.230Z,30.90
2018-04-13T04:38:16.489Z,31.67
2018-04-13T04:40:43.350Z,32.30
2018-04-13T04:43:10.215Z,32.00
2018-04-13T04:45:37.491Z,33.08
2018-04-13T04:48:04.355Z,31.40
2018-04-13T04:50:31.687Z,32.00
2018-04-13T04:52:58.676Z,32.05
2018-04-13T04:55:25.533Z,33.45
2018-04-13T04:57:52.398Z,31.77
2018-04-13T05:00:19.358Z,31.45
2018-04-13T05:02:46.925Z,31.20
2018-04-13T05:05:14.282Z,33.30
2018-04-13T05:07:41.520Z,32.20
2018-04-13T05:10:09.444Z,33.03
2018-04-13T05:12:36.659Z,32.27
2018-04-13T05:15:03.473Z,32.50
2018-04-13T05:17:30.326Z,32.37
2018-04-13T05:19:57.311Z,32.53
2018-04-13T05:22:24.168Z,31.77
2018-04-13T05:24:51.715Z,32.40
2018-04-13T05:27:19.019Z,33.38
2018-04-13T05:29:45.922Z,33.22
2018-04-13T05:32:12.751Z,32.80
2018-04-13T05:34:39.635Z,32.78
2018-04-13T05:37:06.538Z,32.75
2018-04-13T05:39:33.671Z,33.65
2018-04-13T05:42:00.556Z,32.70
2018-04-13T05:44:27.414Z,33.22
2018-04-13T05:46:54.316Z,32.83
2018-04-13T05:49:21.589Z,31.80
2018-04-13T05:51:48.410Z,32.40
2018-04-13T05:54:15.259Z,31.92
2018-04-13T05:56:42.121Z,32.72
2018-04-13T05:59:08.975Z,32.25
2018-04-13T06:01:35.798Z,32.47
2018-04-13T06:04:02.717Z,32.42
2018-04-13T06:06:29.540Z,32.83
2018-04-13T06:08:56.606Z,31.62
2018-04-13T06:11:23.763Z,32.60
2018-04-13T06:13:50.915Z,33.10
2018-04-13T06:16:17.771Z,32.30
2018-04-13T06:18:44.629Z,33.35
2018-04-13T06:21:11.484Z,32.50
2018-04-13T06:23:38.367Z,32.40
2018-04-13T06:26:05.251Z,34.80
2018-04-13T06:28:32.378Z,32.08
2018-04-13T06:30:59.287Z,34.17
2018-04-13T06:33:26.177Z,33.28
2018-04-13T06:35:53.315Z,33.42
2018-04-13T06:38:20.469Z,32.42
2018-04-13T06:40:47.347Z,31.90
2018-04-13T06:43:14.203Z,31.67
2018-04-13T06:45:41.030Z,31.53
2018-04-13T06:48:07.873Z,31.85
2018-04-13T06:50:34.995Z,30.73
2018-04-13T06:53:02.147Z,31.65
2018-04-13T06:55:29.015Z,31.52
2018-04-13T06:57:55.863Z,29.48
2018-04-13T07:00:22.920Z,29.50
2018-04-13T07:02:49.757Z,29.83
2018-04-13T07:05:16.876Z,29.90
2018-04-13T07:07:44.021Z,30.00
2018-04-13T07:10:10.896Z,29.63
2018-04-13T07:12:37.738Z,29.40
2018-04-13T07:15:04.827Z,29.63
2018-04-13T07:17:31.678Z,29.00
2018-04-13T07:19:58.513Z,27.00
2018-04-13T07:22:25.337Z,27.10
2018-04-13T07:24:52.543Z,28.27
2018-04-13T07:27:19.997Z,28.02
2018-04-13T07:29:46.924Z,26.43
2018-04-13T07:32:13.806Z,27.70
2018-04-13T07:34:40.638Z,26.67
2018-04-13T07:37:07.491Z,25.23
2018-04-13T07:39:34.353Z,27.20
2018-04-13T07:42:01.334Z,25.70
2018-04-13T07:44:28.041Z,26.85
2018-04-13T07:46:54.923Z,27.83
2018-04-13T07:49:21.740Z,25.80
2018-04-13T07:51:48.834Z,25.98
2018-04-13T07:54:15.788Z,26.83
2018-04-13T07:56:42.636Z,26.23
2018-04-13T07:59:09.458Z,26.10
2018-04-13T08:01:36.310Z,26.67
2018-04-13T08:04:03.163Z,25.73
2018-04-13T08:06:29.981Z,25.05
2018-04-13T08:08:56.890Z,24.70
2018-04-13T08:11:23.752Z,24.55
2018-04-13T08:13:50.946Z,24.02
2018-04-13T08:16:17.826Z,23.13
2018-04-13T08:18:45.263Z,21.95
2018-04-13T08:21:12.178Z,22.50
2018-04-13T08:23:39.088Z,22.83
2018-04-13T08:26:06.074Z,21.30
2018-04-13T08:28:32.981Z,22.13
2018-04-13T08:31:00.012Z,21.67
2018-04-13T08:33:26.955Z,21.43
2018-04-13T08:35:53.795Z,22.30
2018-04-13T08:38:20.653Z,22.05
2018-04-13T08:40:47.715Z,21.00
2018-04-13T08:43:14.586Z,21.47
2018-04-13T08:45:41.555Z,20.67
2018-04-13T08:48:08.718Z,21.05
2018-04-13T08:50:35.579Z,20.95
2018-04-13T08:53:02.492Z,20.67
2018-04-13T08:55:29.331Z,20.77
2018-04-13T08:57:56.195Z,19.08
2018-04-13T09:00:23.414Z,18.90
2018-04-13T09:02:50.574Z,17.62
2018-04-13T09:05:17.438Z,17.90
2018-04-13T09:07:44.557Z,17.90
2018-04-13T09:10:11.419Z,17.20
2018-04-13T09:12:38.510Z,17.80
2018-04-13T09:15:05.393Z,17.45
2018-04-13T09:17:32.206Z,17.40
2018-04-13T09:19:59.021Z,18.20
2018-04-13T09:22:26.093Z,17.40
2018-04-13T09:24:52.955Z,16.90
2018-04-13T09:27:19.777Z,17.20
2018-04-13T09:29:46.646Z,17.75
2018-04-13T09:32:13.621Z,17.60
2018-04-13T09:34:40.477Z,17.65
2018-04-13T09:37:07.351Z,18.50
2018-04-13T09:39:34.174Z,18.67
2018-04-13T09:42:01.026Z,18.17
2018-04-13T09:44:27.882Z,17.67
2018-04-13T09:46:54.705Z,17.60
2018-04-13T09:49:21.804Z,16.85
2018-04-13T09:51:48.661Z,17.37
2018-04-13T09:54:15.810Z,15.60
2018-04-13T09:56:42.964Z,13.80
2018-04-13T09:59:09.849Z,13.45
2018-04-13T10:01:36.711Z,10.88
2018-04-13T10:04:03.527Z,10.90
2018-04-13T10:06:30.395Z,10.40
2018-04-13T10:08:57.248Z,10.80
2018-04-13T10:11:24.126Z,10.07
2018-04-13T10:13:50.972Z,10.50
2018-04-13T10:16:17.835Z,10.05
2018-04-13T10:18:44.966Z,9.50
2018-04-13T10:21:11.855Z,9.70
2018-04-13T10:23:38.700Z,9.02
2018-04-13T10:26:05.533Z,8.82
2018-04-13T10:28:32.371Z,9.90
2018-04-13T10:30:59.189Z,9.90
2018-04-13T10:33:26.047Z,9.48
2018-04-13T10:35:52.902Z,9.57
2018-04-13T10:38:19.751Z,9.13
2018-04-13T10:40:46.601Z,9.52
2018-04-13T10:43:13.734Z,9.23
2018-04-13T10:45:40.598Z,9.90
2018-04-13T10:48:07.475Z,9.25
2018-04-13T10:50:34.324Z,10.23
2018-04-13T10:53:01.191Z,9.65
2018-04-13T10:55:28.017Z,9.25
2018-04-13T10:57:54.858Z,9.13
2018-04-13T11:00:21.677Z,8.20
2018-04-13T11:02:48.567Z,8.57
2018-04-13T11:05:15.699Z,9.17
2018-04-13T11:07:42.845Z,9.03
2018-04-13T11:10:10.013Z,8.27
2018-04-13T11:12:37.150Z,9.10
2018-04-13T11:15:04.010Z,8.80
2018-04-13T11:17:30.859Z,8.13
2018-04-13T11:19:57.709Z,8.50
2018-04-13T11:22:24.827Z,8.48
2018-04-13T11:24:51.982Z,8.30
2018-04-13T11:27:18.817Z,9.20
2018-04-13T11:29:45.977Z,11.07
2018-04-13T11:32:13.117Z,14.05
2018-04-13T11:34:40.275Z,10.48
2018-04-13T11:37:07.128Z,10.80
2018-04-13T11:39:33.934Z,10.63
2018-04-13T11:42:01.104Z,10.85
2018-04-13T11:44:28.119Z,10.90
2018-04-13T11:46:54.928Z,10.85
2018-04-13T11:49:22.033Z,11.52
2018-04-13T11:51:48.861Z,10.95
2018-04-13T11:54:15.722Z,10.45
2018-04-13T11:56:42.773Z,10.98
2018-04-13T11:59:09.622Z,10.27
2018-04-13T12:01:36.664Z,11.07
2018-04-13T12:04:03.717Z,11.32
2018-04-13T12:06:30.532Z,10.90
2018-04-13T12:08:57.610Z,11.30
2018-04-13T12:11:24.419Z,11.63
2018-04-13T12:13:51.212Z,12.40
2018-04-13T12:16:18.004Z,12.95
2018-04-13T12:18:45.078Z,13.13
2018-04-13T12:21:11.876Z,13.70
2018-04-13T12:23:38.713Z,13.25
2018-04-13T12:26:05.549Z,14.00
2018-04-13T12:28:32.336Z,14.82
2018-04-13T12:30:59.397Z,13.90
2018-04-13T12:33:26.193Z,14.80
2018-04-13T12:35:53.064Z,14.20
2018-04-13T12:38:20.236Z,14.70
2018-04-13T12:40:47.288Z,13.20
2018-04-13T12:43:14.337Z,12.73
2018-04-13T12:45:41.210Z,13.80
2018-04-13T12:48:08.063Z,13.40
2018-04-13T12:50:34.887Z,12.85
2018-04-13T12:53:01.732Z,14.18
2018-04-13T12:55:28.849Z,12.68
2018-04-13T12:57:55.918Z,13.30
2018-04-13T13:00:22.732Z,13.57
2018-04-13T13:02:49.536Z,14.18
2018-04-13T13:05:16.737Z,14.77
2018-04-13T13:07:43.889Z,15.32
2018-04-13T13:10:10.720Z,14.82
2018-04-13T13:12:37.618Z,15.38
2018-04-13T13:15:04.731Z,15.27
2018-04-13T13:17:31.617Z,14.85
2018-04-13T13:19:58.473Z,15.35
2018-04-13T13:22:25.271Z,14.43
2018-04-13T13:24:52.105Z,13.77
2018-04-13T13:27:18.904Z,14.55
2018-04-13T13:29:45.988Z,14.55
2018-04-13T13:32:12.796Z,14.40
2018-04-13T13:34:39.682Z,14.13
2018-04-13T13:37:06.859Z,14.25
2018-04-13T13:39:33.678Z,13.48
2018-04-13T13:42:00.460Z,13.82
2018-04-13T13:44:27.320Z,14.82
2018-04-13T13:46:54.154Z,14.05
2018-04-13T13:49:21.001Z,13.40
2018-04-13T13:51:48.197Z,13.68
2018-04-13T13:54:15.021Z,13.07
2018-04-13T13:56:41.909Z,12.97
2018-04-13T13:59:09.032Z,11.82
2018-04-13T14:01:36.105Z,11.80
2018-04-13T14:04:03.228Z,11.30
2018-04-13T14:06:29.981Z,11.07
2018-04-13T14:08:56.847Z,11.30
2018-04-13T14:11:23.701Z,10.70
2018-04-13T14:13:50.800Z,10.90
2018-04-13T14:16:17.592Z,10.52
2018-04-13T14:18:45.042Z,11.90
2018-04-13T14:21:12.161Z,10.90
2018-04-13T14:23:39.302Z,10.23
2018-04-13T14:26:06.172Z,9.60
2018-04-13T14:28:33.310Z,9.70
2018-04-13T14:31:00.093Z,9.30
2018-04-13T14:33:26.934Z,8.43
2018-04-13T14:35:53.786Z,7.72
2018-04-13T14:38:20.626Z,7.60
2018-04-13T14:40:47.420Z,7.10
2018-04-13T14:43:14.571Z,6.80
2018-04-13T14:45:41.694Z,8.23
2018-04-13T14:48:08.510Z,18.83
2018-04-13T14:50:35.336Z,7.05
2018-04-13T14:53:02.218Z,6.82
2018-04-13T14:55:29.022Z,6.63
2018-04-13T14:57:56.138Z,7.50
2018-04-13T15:00:22.950Z,6.47
2018-04-13T15:02:49.777Z,6.10
2018-04-13T15:05:16.598Z,6.87
2018-04-13T15:07:43.393Z,5.90
2018-04-13T15:10:10.242Z,6.70
2018-04-13T15:12:37.016Z,6.68
2018-04-13T15:15:03.874Z,6.85
2018-04-13T15:17:30.661Z,6.63
2018-04-13T15:19:57.498Z,6.90
2018-04-13T15:22:24.329Z,6.70
2018-04-13T15:24:51.159Z,7.50
2018-04-13T15:27:17.964Z,8.77
2018-04-13T15:29:44.753Z,8.70
2018-04-13T15:32:11.583Z,11.20
2018-04-13T15:34:38.423Z,13.40
2018-04-13T15:37:05.224Z,14.40
2018-04-13T15:39:32.073Z,16.12
2018-04-13T15:41:58.877Z,17.45
2018-04-13T15:44:25.676Z,16.87
2018-04-13T15:46:52.764Z,19.30
2018-04-13T15:49:19.780Z,20.70
2018-04-13T15:51:46.658Z,22.92
2018-04-13T15:54:13.490Z,27.13
2018-04-13T15:56:40.287Z,23.95
2018-04-13T15:59:07.125Z,24.27
2018-04-13T16:01:33.936Z,24.30
2018-04-13T16:04:00.814Z,25.92
2018-04-13T16:06:27.609Z,25.30
2018-04-13T16:08:54.417Z,26.80
2018-04-13T16:11:21.253Z,25.62
2018-04-13T16:13:48.090Z,26.98
2018-04-13T16:16:14.942Z,28.90
2018-04-13T16:18:41.729Z,27.97
2018-04-13T16:21:08.800Z,27.23
2018-04-13T16:23:35.846Z,27.20
2018-04-13T16:26:02.643Z,28.15
2018-04-13T16:28:29.740Z,26.20
2018-04-13T16:30:56.537Z,27.45
2018-04-13T16:33:23.651Z,27.40
2018-04-13T16:35:50.416Z,29.37
2018-04-13T16:38:17.474Z,29.83
2018-04-13T16:40:44.330Z,28.45
2018-04-13T16:43:11.332Z,28.12
2018-04-13T16:45:38.171Z,27.60
2018-04-13T16:48:05.191Z,28.95
2018-04-13T16:50:32.029Z,28.48
2018-04-13T16:52:58.814Z,28.70
2018-04-13T16:55:25.612Z,29.13
2018-04-13T16:57:52.447Z,28.65
2018-04-13T17:00:19.232Z,29.30
2018-04-13T17:02:46.044Z,28.38
2018-04-13T17:05:12.877Z,29.63
2018-04-13T17:07:39.694Z,30.52
2018-04-13T17:10:06.516Z,29.92
2018-04-13T17:12:33.307Z,28.73
2018-04-13T17:15:00.128Z,29.63
2018-04-13T17:17:27.224Z,29.67
2018-04-13T17:19:54.277Z,30.50
2018-04-13T17:22:21.128Z,30.12
2018-04-13T17:24:48.003Z,30.33
2018-04-13T17:27:15.104Z,29.37
2018-04-13T17:29:41.922Z,30.35
2018-04-13T17:32:08.998Z,29.40
2018-04-13T17:34:35.784Z,30.83
2018-04-13T17:37:02.643Z,30.10
2018-04-13T17:39:29.457Z,30.48
2018-04-13T17:41:56.272Z,29.48
2018-04-13T17:44:23.110Z,29.63
2018-04-13T17:46:50.120Z,28.92
2018-04-13T17:49:16.954Z,30.62
2018-04-13T17:51:43.798Z,30.67
2018-04-13T17:54:10.654Z,31.80
2018-04-13T17:56:37.485Z,30.77
2018-04-13T17:59:04.316Z,30.90
2018-04-13T18:01:31.143Z,30.10
2018-04-13T18:03:58.264Z,30.10
2018-04-13T18:06:25.114Z,30.33
2018-04-13T18:08:51.909Z,30.90
2018-04-13T18:11:18.708Z,29.33
2018-04-13T18:13:45.841Z,28.20
2018-04-13T18:16:12.889Z,28.92
2018-04-13T18:18:39.733Z,29.77
2018-04-13T18:21:06.780Z,29.87
2018-04-13T18:23:33.614Z,31.52
2018-04-13T18:26:00.668Z,29.42
2018-04-13T18:28:27.503Z,29.70
2018-04-13T18:30:54.573Z,28.80
2018-04-13T18:33:21.361Z,29.02
2018-04-13T18:35:48.155Z,28.95
2018-04-13T18:38:14.970Z,29.00
2018-04-13T18:40:42.082Z,29.90
2018-04-13T18:43:08.894Z,29.30
2018-04-13T18:45:35.698Z,30.17
2018-04-13T18:48:02.511Z,29.40
2018-04-13T18:50:29.548Z,28.48
2018-04-13T18:52:56.350Z,27.42
2018-04-13T18:55:23.202Z,27.48
2018-04-13T18:57:50.035Z,28.80
2018-04-13T19:00:16.785Z,29.17
2018-04-13T19:02:43.624Z,29.43
2018-04-13T19:05:10.786Z,28.30
2018-04-13T19:07:37.627Z,28.60
2018-04-13T19:10:04.687Z,29.05
2018-04-13T19:12:31.478Z,29.00
2018-04-13T19:14:58.518Z,28.43
2018-04-13T19:17:25.398Z,29.17
2018-04-13T19:19:52.238Z,29.73
2018-04-13T19:22:19.075Z,29.05
2018-04-13T19:24:46.136Z,29.80
2018-04-13T19:27:12.943Z,28.60
2018-04-13T19:29:40.035Z,30.17
2018-04-13T19:32:06.849Z,29.67
2018-04-13T19:34:33.686Z,29.98
2018-04-13T19:37:00.472Z,29.35
2018-04-13T19:39:27.321Z,29.30
2018-04-13T19:41:54.108Z,29.95
2018-04-13T19:44:21.190Z,30.85
2018-04-13T19:46:47.984Z,30.80
2018-04-13T19:49:14.815Z,29.65
2018-04-13T19:51:41.650Z,30.17
2018-04-13T19:54:08.469Z,29.02
2018-04-13T19:56:35.279Z,29.97
2018-04-13T19:59:02.101Z,30.65
2018-04-13T20:01:29.197Z,30.17
2018-04-13T20:03:56.029Z,30.48
2018-04-13T20:06:23.085Z,31.60
2018-04-13T20:08:49.931Z,30.85
2018-04-13T20:11:16.751Z,31.30
2018-04-13T20:13:43.577Z,31.83
2018-04-13T20:16:10.368Z,32.15
2018-04-13T20:18:37.405Z,31.50
2018-04-13T20:21:04.257Z,31.90
2018-04-13T20:23:31.068Z,31.98
2018-04-13T20:25:58.084Z,35.17
2018-04-13T20:28:24.922Z,32.95
2018-04-13T20:30:51.742Z,32.37
2018-04-13T20:33:18.814Z,32.00
2018-04-13T20:35:45.638Z,32.38
2018-04-13T20:38:12.685Z,32.65
2018-04-13T20:40:39.700Z,33.80
2018-04-13T20:43:06.494Z,33.25
2018-04-13T20:45:33.550Z,32.50
2018-04-13T20:48:00.375Z,33.20
2018-04-13T20:53:11.389Z,34.47
2018-04-13T20:55:38.257Z,33.22
2018-04-13T20:58:05.113Z,30.05
2018-04-13T21:00:32.290Z,29.60
2018-04-13T21:02:59.139Z,29.80
2018-04-13T21:05:26.311Z,29.20
2018-04-13T21:07:53.129Z,27.63
2018-04-13T21:10:20.006Z,29.63
2018-04-13T21:12:46.871Z,28.98
2018-04-13T21:15:13.740Z,28.67
2018-04-13T21:17:40.597Z,28.38
2018-04-13T21:20:07.422Z,29.90
2018-04-13T21:22:34.258Z,28.60
2018-04-13T21:25:01.439Z,29.10
2018-04-13T21:27:28.272Z,29.40
2018-04-13T21:29:55.135Z,28.55
2018-04-13T21:32:21.957Z,29.33
2018-04-13T21:34:48.794Z,28.40
2018-04-13T21:37:15.622Z,29.05
2018-04-13T21:39:42.437Z,32.50
2018-04-13T21:42:09.511Z,33.93
2018-04-13T21:44:36.694Z,35.50
2018-04-13T21:47:03.757Z,36.60
2018-04-13T21:49:30.584Z,35.70
2018-04-13T21:51:57.739Z,37.90
2018-04-13T21:54:24.599Z,37.00
2018-04-13T21:56:51.736Z,38.78
2018-04-13T21:59:18.599Z,37.75
2018-04-13T22:01:45.458Z,38.15
2018-04-13T22:04:12.327Z,37.70
2018-04-13T22:06:39.412Z,37.58
2018-04-13T22:09:06.253Z,37.70
2018-04-13T22:11:33.119Z,38.10
2018-04-13T22:14:06.293Z,38.20
2018-04-13T22:16:33.131Z,37.70
2018-04-13T22:18:59.945Z,38.10
2018-04-13T22:21:27.023Z,39.10
2018-04-13T22:23:54.310Z,39.40
2018-04-13T22:26:21.126Z,40.47
2018-04-13T22:28:48.265Z,39.22
2018-04-13T22:31:15.154Z,39.45
2018-04-13T22:33:41.965Z,39.75
2018-04-13T22:36:08.837Z,40.10
2018-04-13T22:38:35.945Z,40.40
2018-04-13T22:41:03.106Z,39.93
2018-04-13T22:43:29.958Z,39.33
2018-04-13T22:45:56.886Z,42.25
2018-04-13T22:48:23.734Z,40.42
2018-04-13T22:50:50.604Z,42.45
2018-04-13T22:53:17.507Z,41.15
2018-04-13T22:55:44.353Z,41.47
2018-04-13T22:58:11.516Z,41.45
2018-04-13T23:00:38.390Z,41.20
2018-04-13T23:03:05.257Z,41.80
2018-04-13T23:05:32.090Z,40.45
2018-04-13T23:07:58.944Z,40.30
2018-04-13T23:10:26.142Z,40.65
2018-04-13T23:12:52.965Z,39.35
2018-04-13T23:15:19.906Z,40.20
2018-04-13T23:17:46.725Z,39.88
2018-04-13T23:20:14.541Z,40.47
2018-04-13T23:22:41.459Z,40.05
2018-04-13T23:25:08.316Z,40.95
2018-04-13T23:27:35.402Z,42.47
2018-04-13T23:30:02.531Z,43.47
2018-04-13T23:32:29.395Z,42.60
2018-04-13T23:34:56.523Z,42.97
2018-04-13T23:37:23.669Z,44.93
2018-04-13T23:39:50.538Z,42.20
2018-04-13T23:42:17.397Z,43.55
2018-04-13T23:44:44.283Z,44.75
2018-04-13T23:47:11.146Z,45.03
2018-04-13T23:49:38.012Z,44.85
2018-04-13T23:52:04.886Z,44.30
2018-04-13T23:54:31.770Z,45.80
2018-04-13T23:56:58.605Z,45.25
2018-04-13T23:59:25.482Z,45.38
